Time;durP1;ratioP1;P1;durP2;ratioP2;P2;SDS_P1;SDS_P2;PMS_P1;PMS_P2;Temp;Humidity;BMP_temperature;BMP_pressure;BME280_temperature;BME280_humidity;BME280_pressure;Samples;Min_cycle;Max_cycle;Signal;HPM_P1;HPM_P2
2022/09/21 00:00:08;;;;;;;;;;;7.90;99.90;;;;;;5074648;28;19921;-57
2022/09/21 00:02:33;;;;;;;;;;;8.00;99.90;;;;;;5074372;28;19920;-62
2022/09/21 00:04:59;;;;;;;;;;;8.00;99.90;;;;;;5074946;28;19921;-60
2022/09/21 00:07:24;;;;;;;;;;;8.00;99.90;;;;;;5074787;28;20329;-61
2022/09/21 00:09:50;;;;;;;;;;;8.00;99.90;;;;;;5073245;28;19932;-61
2022/09/21 00:12:16;;;;;;;;;;;8.00;99.90;;;;;;5075016;28;19917;-61
2022/09/21 00:14:41;;;;;;;;;;;8.00;99.90;;;;;;5073982;28;19924;-62
2022/09/21 00:17:08;;;;;;;;;;;7.90;99.90;;;;;;5063809;28;19920;-61
2022/09/21 00:19:34;;;;;;;;;;;7.90;99.90;;;;;;5074760;28;19963;-56
2022/09/21 00:22:00;;;;;;;;;;;7.90;99.90;;;;;;5074702;28;19967;-61
2022/09/21 00:24:26;;;;;;;;;;;7.90;99.90;;;;;;5074182;28;19963;-57
2022/09/21 00:26:52;;;;;;;;;;;7.90;99.90;;;;;;5056189;28;20010;-62
2022/09/21 00:29:17;;;;;;;;;;;7.90;99.90;;;;;;5074575;28;20066;-58
2022/09/21 00:31:43;;;;;;;;;;;7.90;99.90;;;;;;5074632;28;19927;-57
2022/09/21 00:34:09;;;;;;;;;;;7.90;99.90;;;;;;5074332;28;19965;-58
2022/09/21 00:36:35;;;;;;;;;;;7.90;99.90;;;;;;5056889;28;19959;-58
2022/09/21 00:39:01;;;;;;;;;;;7.90;99.90;;;;;;5074105;28;19924;-59
2022/09/21 00:41:28;;;;;;;;;;;7.90;99.90;;;;;;5074428;28;19963;-58
2022/09/21 00:44:12;;;;;;;;;;;7.90;99.90;;;;;;5074469;28;19965;-57
2022/09/21 00:46:39;;;;;;;;;;;7.80;99.90;;;;;;5074009;28;19920;-56
2022/09/21 00:49:04;;;;;;;;;;;7.70;99.90;;;;;;5074627;28;19920;-56
2022/09/21 00:51:30;;;;;;;;;;;7.70;99.90;;;;;;5056238;28;19931;-56
2022/09/21 00:54:01;;;;;;;;;;;7.70;99.90;;;;;;5074618;28;19927;-57
2022/09/21 00:56:27;;;;;;;;;;;7.70;99.90;;;;;;5074222;28;19947;-62
2022/09/21 00:58:53;;;;;;;;;;;7.60;99.90;;;;;;5073802;28;20362;-58
2022/09/21 01:01:19;;;;;;;;;;;7.60;99.90;;;;;;5073617;28;20375;-57
2022/09/21 01:03:45;;;;;;;;;;;7.60;99.90;;;;;;5074159;28;19927;-58
2022/09/21 01:06:12;;;;;;;;;;;7.60;99.90;;;;;;5074172;28;20290;-58
2022/09/21 01:08:40;;;;;;;;;;;7.60;99.90;;;;;;5073329;28;20400;-56
2022/09/21 01:11:24;;;;;;;;;;;7.60;99.90;;;;;;5056131;28;20370;-58
2022/09/21 01:13:56;;;;;;;;;;;7.60;99.90;;;;;;5059050;28;20470;-56
2022/09/21 01:16:24;;;;;;;;;;;7.50;99.90;;;;;;5073096;28;20520;-61
2022/09/21 01:19:10;;;;;;;;;;;7.50;99.90;;;;;;5073440;28;19971;-59
2022/09/21 01:21:42;;;;;;;;;;;7.50;99.90;;;;;;5026045;28;19920;-62
2022/09/21 01:24:34;;;;;;;;;;;7.40;99.90;;;;;;5073204;28;20294;-62
2022/09/21 01:27:18;;;;;;;;;;;7.30;99.90;;;;;;5019628;28;19942;-57
2022/09/21 01:29:55;;;;;;;;;;;7.30;99.90;;;;;;5072358;28;19927;-60
2022/09/21 01:32:30;;;;;;;;;;;7.20;99.90;;;;;;5073350;28;19924;-60
2022/09/21 01:35:11;;;;;;;;;;;7.20;99.90;;;;;;5075761;28;19920;-61
2022/09/21 01:37:46;;;;;;;;;;;7.20;99.90;;;;;;5067169;28;20359;-63
2022/09/21 01:40:24;;;;;;;;;;;7.10;99.90;;;;;;5072757;28;20030;-58
2022/09/21 01:42:50;;;;;;;;;;;7.10;99.90;;;;;;5073448;28;19921;-56
2022/09/21 01:45:19;;;;;;;;;;;7.10;99.90;;;;;;5072627;28;19921;-56
2022/09/21 01:47:46;;;;;;;;;;;7.10;99.90;;;;;;5073091;28;20374;-55
2022/09/21 01:50:13;;;;;;;;;;;7.10;99.90;;;;;;5073295;28;20350;-56
2022/09/21 01:52:45;;;;;;;;;;;7.00;99.90;;;;;;5072936;28;19917;-56
2022/09/21 01:55:13;;;;;;;;;;;7.10;99.90;;;;;;5073138;28;19924;-57
2022/09/21 01:57:46;;;;;;;;;;;7.10;99.90;;;;;;5073028;28;19974;-56
2022/09/21 02:00:12;;;;;;;;;;;7.10;99.90;;;;;;5073150;28;19927;-55
2022/09/21 02:02:40;;;;;;;;;;;7.10;99.90;;;;;;5072813;28;19920;-59
2022/09/21 02:05:06;;;;;;;;;;;7.10;99.90;;;;;;5073013;28;19927;-56
2022/09/21 02:07:33;;;;;;;;;;;7.00;99.90;;;;;;5072812;28;19920;-55
2022/09/21 02:10:00;;;;;;;;;;;7.10;99.90;;;;;;5072915;28;20279;-59
2022/09/21 02:12:26;;;;;;;;;;;6.90;99.90;;;;;;5072713;28;19928;-60
2022/09/21 02:14:54;;;;;;;;;;;7.00;99.90;;;;;;5073018;28;20369;-55
2022/09/21 02:17:28;;;;;;;;;;;8.20;99.90;;;;;;5044348;28;20417;-56
2022/09/21 02:20:07;;;;;;;;;;;6.90;99.90;;;;;;5072990;28;20003;-58
2022/09/21 02:22:48;;;;;;;;;;;6.90;99.90;;;;;;5054686;28;20007;-58
2022/09/21 02:25:27;;;;;;;;;;;6.90;99.90;;;;;;5072873;28;19928;-57
2022/09/21 02:27:55;;;;;;;;;;;6.90;99.90;;;;;;5072284;28;20019;-56
2022/09/21 02:30:23;;;;;;;;;;;7.00;99.90;;;;;;5072390;28;19950;-56
2022/09/21 02:33:04;;;;;;;;;;;6.80;99.90;;;;;;5071791;28;19921;-56
2022/09/21 02:35:38;;;;;;;;;;;6.70;99.90;;;;;;5076570;28;20272;-58
2022/09/21 02:38:10;;;;;;;;;;;6.70;99.90;;;;;;5062516;28;19925;-58
2022/09/21 02:40:50;;;;;;;;;;;6.70;99.90;;;;;;5072193;28;19924;-58
2022/09/21 02:43:23;;;;;;;;;;;6.70;99.90;;;;;;5072534;28;20003;-58
2022/09/21 02:45:55;;;;;;;;;;;6.60;99.90;;;;;;5072426;28;19931;-56
2022/09/21 02:48:25;;;;;;;;;;;6.60;99.90;;;;;;5054561;28;19968;-58
2022/09/21 02:50:52;;;;;;;;;;;6.50;99.90;;;;;;5072053;28;20429;-56
2022/09/21 02:53:21;;;;;;;;;;;6.50;99.90;;;;;;5072476;28;19927;-56
2022/09/21 02:55:49;;;;;;;;;;;6.50;99.90;;;;;;5072233;28;19920;-56
2022/09/21 02:58:15;;;;;;;;;;;6.40;99.90;;;;;;5037481;28;19927;-57
2022/09/21 03:00:41;;;;;;;;;;;6.40;99.90;;;;;;5054615;28;19920;-56
2022/09/21 03:03:15;;;;;;;;;;;6.40;99.90;;;;;;5072639;28;20089;-56
2022/09/21 03:05:42;;;;;;;;;;;6.30;99.90;;;;;;5041885;28;19920;-57
2022/09/21 03:08:07;;;;;;;;;;;6.30;99.90;;;;;;5071009;28;20294;-58
2022/09/21 03:10:35;;;;;;;;;;;6.20;99.90;;;;;;5071822;28;19931;-57
2022/09/21 03:13:01;;;;;;;;;;;6.20;99.90;;;;;;5072042;28;19924;-58
2022/09/21 03:15:26;;;;;;;;;;;6.20;99.90;;;;;;5072139;28;20290;-58
2022/09/21 03:17:52;;;;;;;;;;;6.10;99.90;;;;;;5061517;28;20373;-58
2022/09/21 03:20:17;;;;;;;;;;;6.10;99.90;;;;;;5072210;28;20359;-58
2022/09/21 03:22:43;;;;;;;;;;;6.10;99.90;;;;;;5072207;28;20672;-58
2022/09/21 03:25:11;;;;;;;;;;;6.10;99.90;;;;;;5072309;28;20348;-55
2022/09/21 03:27:36;;;;;;;;;;;6.30;99.90;;;;;;5071478;28;19959;-56
2022/09/21 03:30:02;;;;;;;;;;;5.90;99.90;;;;;;5054249;28;19971;-57
2022/09/21 03:32:27;;;;;;;;;;;6.00;99.90;;;;;;5071891;28;19999;-56
2022/09/21 03:34:53;;;;;;;;;;;5.90;99.90;;;;;;5053515;28;19924;-56
2022/09/21 03:37:19;;;;;;;;;;;5.90;99.90;;;;;;5072059;28;19966;-55
2022/09/21 03:39:45;;;;;;;;;;;5.80;99.90;;;;;;5071766;28;20011;-56
2022/09/21 03:42:12;;;;;;;;;;;5.80;99.90;;;;;;5071721;28;20028;-56
2022/09/21 03:44:40;;;;;;;;;;;5.80;99.90;;;;;;5073905;28;20374;-56
2022/09/21 03:47:06;;;;;;;;;;;5.80;99.90;;;;;;5057420;28;19924;-57
2022/09/21 03:49:31;;;;;;;;;;;5.80;99.90;;;;;;5075427;28;19927;-56
2022/09/21 03:51:58;;;;;;;;;;;6.00;99.90;;;;;;5075595;28;19921;-56
2022/09/21 03:54:24;;;;;;;;;;;5.80;99.90;;;;;;5075166;28;20397;-56
2022/09/21 03:56:50;;;;;;;;;;;5.80;99.90;;;;;;5074280;28;19938;-55
2022/09/21 03:59:16;;;;;;;;;;;5.70;99.90;;;;;;5073502;28;19924;-56
2022/09/21 04:01:42;;;;;;;;;;;5.70;99.90;;;;;;5075211;28;20399;-56
2022/09/21 04:04:07;;;;;;;;;;;5.70;99.90;;;;;;5057397;28;19920;-56
2022/09/21 04:06:33;;;;;;;;;;;5.90;99.90;;;;;;5075028;28;19920;-57
2022/09/21 04:09:01;;;;;;;;;;;5.70;99.90;;;;;;5075072;28;19926;-56
2022/09/21 04:11:27;;;;;;;;;;;5.60;99.90;;;;;;5074469;28;20238;-56
2022/09/21 04:13:55;;;;;;;;;;;5.60;99.90;;;;;;5074564;28;19920;-60
2022/09/21 04:16:24;;;;;;;;;;;5.60;99.90;;;;;;5069901;28;19925;-55
2022/09/21 04:18:50;;;;;;;;;;;5.60;99.90;;;;;;5068698;28;19962;-59
2022/09/21 04:21:16;;;;;;;;;;;5.50;99.90;;;;;;5075080;28;19920;-58
2022/09/21 04:23:42;;;;;;;;;;;5.50;99.90;;;;;;5075212;28;19999;-56
2022/09/21 04:26:18;;;;;;;;;;;5.90;99.90;;;;;;5074380;28;20256;-57
2022/09/21 04:28:44;;;;;;;;;;;5.50;99.90;;;;;;5074478;28;19931;-58
2022/09/21 04:31:09;;;;;;;;;;;5.50;99.90;;;;;;5074495;28;20274;-56
2022/09/21 04:33:35;;;;;;;;;;;5.40;99.90;;;;;;5073933;28;19920;-59
2022/09/21 04:36:01;;;;;;;;;;;5.40;99.90;;;;;;5069795;28;20375;-56
2022/09/21 04:38:26;;;;;;;;;;;5.40;99.90;;;;;;5070487;28;19924;-57
2022/09/21 04:40:55;;;;;;;;;;;5.40;99.90;;;;;;5065381;28;19924;-56
2022/09/21 04:43:22;;;;;;;;;;;5.30;99.90;;;;;;5051312;28;19928;-56
2022/09/21 04:45:47;;;;;;;;;;;5.30;99.90;;;;;;5073225;28;19920;-64
2022/09/21 04:48:13;;;;;;;;;;;5.40;99.90;;;;;;5071520;28;19926;-56
2022/09/21 04:50:38;;;;;;;;;;;5.70;99.90;;;;;;5056646;28;20008;-56
2022/09/21 04:53:04;;;;;;;;;;;5.40;99.90;;;;;;5057182;28;20367;-56
2022/09/21 04:55:30;;;;;;;;;;;6.10;99.90;;;;;;5054029;28;19978;-56
2022/09/21 04:57:56;;;;;;;;;;;5.40;99.90;;;;;;5054248;28;19925;-58
2022/09/21 05:00:21;;;;;;;;;;;6.00;99.90;;;;;;5055373;28;19976;-56
2022/09/21 05:02:47;;;;;;;;;;;5.50;99.90;;;;;;5055119;28;20370;-57
2022/09/21 05:05:13;;;;;;;;;;;5.40;99.90;;;;;;5056000;28;20326;-55
2022/09/21 05:07:38;;;;;;;;;;;5.40;99.90;;;;;;5053882;28;19966;-57
2022/09/21 05:10:04;;;;;;;;;;;5.40;99.90;;;;;;5054228;28;19927;-56
2022/09/21 05:12:30;;;;;;;;;;;5.30;99.90;;;;;;5054947;28;19932;-62
2022/09/21 05:14:56;;;;;;;;;;;5.30;99.90;;;;;;5055249;28;19920;-56
2022/09/21 05:17:22;;;;;;;;;;;5.30;99.90;;;;;;5067691;28;19936;-56
2022/09/21 05:19:48;;;;;;;;;;;7.60;99.90;;;;;;5060439;28;19925;-57
2022/09/21 05:22:13;;;;;;;;;;;5.30;99.90;;;;;;5071665;28;19943;-56
2022/09/21 05:24:39;;;;;;;;;;;5.40;99.90;;;;;;5072980;28;19920;-56
2022/09/21 05:27:04;;;;;;;;;;;5.40;99.90;;;;;;5066520;28;19975;-62
2022/09/21 05:29:30;;;;;;;;;;;5.40;99.90;;;;;;5072801;28;19928;-57
2022/09/21 05:32:05;;;;;;;;;;;5.40;99.90;;;;;;5073732;28;19921;-59
2022/09/21 05:34:53;;;;;;;;;;;5.40;99.90;;;;;;5072179;28;19924;-57
2022/09/21 05:37:33;;;;;;;;;;;5.40;99.90;;;;;;5071749;28;19920;-61
2022/09/21 05:39:59;;;;;;;;;;;5.40;99.90;;;;;;5055805;28;20259;-58
2022/09/21 05:42:24;;;;;;;;;;;5.40;99.90;;;;;;5071414;28;20386;-56
2022/09/21 05:44:50;;;;;;;;;;;5.40;99.90;;;;;;5072225;28;19935;-57
2022/09/21 05:47:22;;;;;;;;;;;5.40;99.90;;;;;;5072566;28;19920;-57
2022/09/21 05:50:02;;;;;;;;;;;5.50;99.90;;;;;;5049491;28;20327;-62
2022/09/21 05:52:30;;;;;;;;;;;5.50;99.90;;;;;;5073140;28;19925;-62
2022/09/21 05:55:06;;;;;;;;;;;5.50;99.90;;;;;;5054976;28;19924;-60
2022/09/21 05:57:41;;;;;;;;;;;5.60;99.90;;;;;;5073093;28;19924;-57
2022/09/21 06:00:13;;;;;;;;;;;5.70;99.90;;;;;;5073270;28;20319;-57
2022/09/21 06:02:57;;;;;;;;;;;5.80;99.90;;;;;;5072786;28;19921;-58
2022/09/21 06:05:23;;;;;;;;;;;5.90;99.90;;;;;;5072555;28;19974;-57
2022/09/21 06:07:48;;;;;;;;;;;5.90;99.90;;;;;;5071641;28;19921;-56
2022/09/21 06:10:15;;;;;;;;;;;6.00;99.90;;;;;;5072890;28;19920;-55
2022/09/21 06:12:40;;;;;;;;;;;6.20;99.90;;;;;;5073053;28;19928;-56
2022/09/21 06:15:06;;;;;;;;;;;6.40;99.90;;;;;;5072944;28;20389;-56
2022/09/21 06:17:32;;;;;;;;;;;6.40;99.90;;;;;;5061899;28;19924;-55
2022/09/21 06:19:58;;;;;;;;;;;6.50;99.90;;;;;;5048434;28;19927;-56
2022/09/21 06:22:23;;;;;;;;;;;6.80;99.90;;;;;;5072461;28;20011;-56
2022/09/21 06:24:49;;;;;;;;;;;7.00;99.90;;;;;;5072842;28;20009;-56
2022/09/21 06:27:14;;;;;;;;;;;6.90;99.90;;;;;;5069356;28;19920;-56
2022/09/21 06:29:40;;;;;;;;;;;7.00;99.90;;;;;;5053790;28;19924;-56
2022/09/21 06:32:05;;;;;;;;;;;7.10;99.90;;;;;;5066959;28;19924;-56
2022/09/21 06:34:31;;;;;;;;;;;7.20;99.90;;;;;;5063923;28;20500;-56
2022/09/21 06:36:57;;;;;;;;;;;7.20;99.90;;;;;;5066763;28;19931;-56
2022/09/21 06:39:22;;;;;;;;;;;7.40;99.90;;;;;;5070398;28;20007;-56
2022/09/21 06:41:48;;;;;;;;;;;7.50;99.90;;;;;;5071758;28;19918;-57
2022/09/21 06:44:13;;;;;;;;;;;7.60;99.90;;;;;;5071643;28;20041;-58
2022/09/21 06:46:39;;;;;;;;;;;7.90;99.90;;;;;;5070998;28;20385;-57
2022/09/21 06:49:04;;;;;;;;;;;8.30;99.90;;;;;;5069863;28;20359;-57
2022/09/21 06:51:30;;;;;;;;;;;8.80;99.90;;;;;;5063575;28;19924;-57
2022/09/21 06:53:56;;;;;;;;;;;8.40;99.90;;;;;;5071869;28;19924;-57
2022/09/21 06:56:23;;;;;;;;;;;8.60;99.90;;;;;;5070704;28;19964;-56
2022/09/21 06:58:48;;;;;;;;;;;8.80;99.90;;;;;;5071104;28;19963;-56
2022/09/21 07:01:14;;;;;;;;;;;9.00;99.90;;;;;;5071520;28;19986;-56
2022/09/21 07:03:40;;;;;;;;;;;9.20;99.90;;;;;;5054388;28;19927;-56
2022/09/21 07:06:07;;;;;;;;;;;9.50;99.90;;;;;;5070073;28;19925;-56
2022/09/21 07:08:32;;;;;;;;;;;9.80;99.90;;;;;;5047208;28;19921;-56
2022/09/21 07:10:59;;;;;;;;;;;10.10;99.90;;;;;;5048908;28;19927;-56
2022/09/21 07:13:28;;;;;;;;;;;10.40;99.90;;;;;;5067186;28;20007;-56
2022/09/21 07:15:53;;;;;;;;;;;10.70;99.90;;;;;;5070941;28;19928;-56
2022/09/21 07:18:20;;;;;;;;;;;11.00;99.90;;;;;;5061863;28;19925;-57
2022/09/21 07:20:47;;;;;;;;;;;11.30;99.90;;;;;;5075198;28;19921;-56
2022/09/21 07:23:14;;;;;;;;;;;11.50;99.90;;;;;;5074266;28;19924;-56
2022/09/21 07:25:40;;;;;;;;;;;11.60;99.90;;;;;;5056194;28;19928;-56
2022/09/21 07:28:06;;;;;;;;;;;11.90;99.90;;;;;;5074258;28;19927;-57
2022/09/21 07:30:31;;;;;;;;;;;12.00;99.90;;;;;;5074823;28;19920;-57
2022/09/21 07:32:57;;;;;;;;;;;12.30;99.90;;;;;;5065878;28;19924;-57
2022/09/21 07:35:23;;;;;;;;;;;12.60;99.90;;;;;;5070770;28;20370;-57
2022/09/21 07:37:48;;;;;;;;;;;12.70;99.90;;;;;;5053291;28;19924;-57
2022/09/21 07:40:14;;;;;;;;;;;12.90;99.90;;;;;;5053615;28;20020;-57
2022/09/21 07:42:40;;;;;;;;;;;13.00;99.90;;;;;;5054141;28;20480;-57
2022/09/21 07:45:06;;;;;;;;;;;13.30;99.90;;;;;;5071059;28;19994;-57
2022/09/21 07:47:31;;;;;;;;;;;13.50;99.90;;;;;;5070040;28;19975;-57
2022/09/21 07:49:57;;;;;;;;;;;13.70;99.90;;;;;;5070945;28;19928;-57
2022/09/21 07:52:22;;;;;;;;;;;13.90;99.90;;;;;;5071384;28;19924;-57
2022/09/21 07:54:48;;;;;;;;;;;14.10;99.90;;;;;;5052897;28;19924;-57
2022/09/21 07:59:58;;;;;;;;;;;14.60;99.90;;;;;;5070762;28;19932;-57
2022/09/21 08:02:23;;;;;;;;;;;14.70;99.90;;;;;;5063648;28;19924;-62
2022/09/21 08:04:49;;;;;;;;;;;14.80;99.90;;;;;;5070663;28;19931;-60
2022/09/21 08:07:15;;;;;;;;;;;14.80;99.90;;;;;;5052462;28;20302;-61
2022/09/21 08:09:40;;;;;;;;;;;15.00;99.90;;;;;;5070444;28;19932;-59
2022/09/21 08:12:07;;;;;;;;;;;15.20;99.90;;;;;;5069433;28;19931;-57
2022/09/21 08:14:33;;;;;;;;;;;15.50;99.90;;;;;;5070787;28;19931;-60
2022/09/21 08:16:59;;;;;;;;;;;15.70;99.90;;;;;;5069880;28;19946;-60
2022/09/21 08:19:25;;;;;;;;;;;15.90;99.90;;;;;;5069598;28;20379;-58
2022/09/21 08:21:51;;;;;;;;;;;16.10;99.90;;;;;;5070912;28;19935;-64
2022/09/21 08:24:16;;;;;;;;;;;16.10;99.90;;;;;;5052497;28;19924;-62
2022/09/21 08:26:42;;;;;;;;;;;16.40;99.90;;;;;;5070477;28;19924;-57
2022/09/21 08:29:08;;;;;;;;;;;16.60;99.90;;;;;;5070567;28;19924;-57
2022/09/21 08:31:34;;;;;;;;;;;16.60;99.90;;;;;;5069180;28;20374;-59
2022/09/21 08:34:00;;;;;;;;;;;16.70;99.90;;;;;;5061765;28;19924;-58
2022/09/21 08:36:26;;;;;;;;;;;17.20;99.90;;;;;;5070063;28;19928;-57
2022/09/21 08:38:53;;;;;;;;;;;17.50;99.90;;;;;;5064743;28;19931;-62
2022/09/21 08:41:25;;;;;;;;;;;17.70;99.90;;;;;;5052240;28;19983;-59
2022/09/21 08:43:52;;;;;;;;;;;18.00;99.90;;;;;;5071120;28;19935;-57
2022/09/21 08:46:20;;;;;;;;;;;18.10;99.90;;;;;;5052094;28;19931;-57
2022/09/21 08:48:49;;;;;;;;;;;18.20;99.90;;;;;;5070228;28;20348;-57
2022/09/21 08:51:20;;;;;;;;;;;18.00;99.90;;;;;;5062162;28;19924;-57
2022/09/21 08:53:47;;;;;;;;;;;18.30;99.90;;;;;;5071122;28;19924;-57
2022/09/21 08:56:14;;;;;;;;;;;18.60;99.90;;;;;;5070226;28;20381;-57
2022/09/21 08:58:40;;;;;;;;;;;18.90;99.90;;;;;;5068977;28;19930;-57
2022/09/21 09:01:32;;;;;;;;;;;18.90;99.90;;;;;;5069618;28;20267;-58
2022/09/21 09:04:12;;;;;;;;;;;18.70;99.90;;;;;;5031275;28;19936;-58
2022/09/21 09:06:57;;;;;;;;;;;18.70;99.90;;;;;;5062185;28;19949;-60
2022/09/21 09:09:33;;;;;;;;;;;19.20;99.90;;;;;;5069323;28;19924;-59
2022/09/21 09:12:37;;;;;;;;;;;19.50;99.90;;;;;;5070251;28;19925;-58
2022/09/21 09:15:13;;;;;;;;;;;19.10;99.90;;;;;;4953254;28;19930;-58
2022/09/21 09:17:47;;;;;;;;;;;19.30;99.90;;;;;;4964539;28;19968;-59
2022/09/21 09:20:17;;;;;;;;;;;19.60;99.90;;;;;;4998092;28;19974;-58
2022/09/21 09:22:45;;;;;;;;;;;18.80;99.90;;;;;;5062454;28;19925;-58
2022/09/21 09:25:19;;;;;;;;;;;19.30;99.90;;;;;;5069883;28;19997;-57
2022/09/21 09:27:47;;;;;;;;;;;19.10;99.90;;;;;;5068962;28;20358;-59
2022/09/21 09:30:15;;;;;;;;;;;19.20;99.90;;;;;;5068030;28;19994;-58
2022/09/21 09:32:56;;;;;;;;;;;19.20;99.90;;;;;;5068084;28;19971;-59
2022/09/21 09:35:30;;;;;;;;;;;20.00;99.90;;;;;;5064601;28;19925;-66
2022/09/21 09:38:10;;;;;;;;;;;20.70;99.90;;;;;;5069061;28;20301;-58
2022/09/21 09:40:55;;;;;;;;;;;20.50;99.90;;;;;;5051613;28;19920;-64
2022/09/21 09:43:33;;;;;;;;;;;20.10;99.90;;;;;;5068975;28;19928;-58
2022/09/21 09:46:11;;;;;;;;;;;20.40;99.90;;;;;;5069456;28;19925;-58
2022/09/21 09:48:45;;;;;;;;;;;20.00;99.90;;;;;;5069186;28;19924;-58
2022/09/21 09:51:11;;;;;;;;;;;20.10;98.90;;;;;;5069374;28;19929;-58
2022/09/21 09:53:37;;;;;;;;;;;20.90;99.80;;;;;;5069438;28;19924;-59
2022/09/21 09:56:03;;;;;;;;;;;20.60;99.20;;;;;;5069421;28;19977;-59
2022/09/21 09:58:48;;;;;;;;;;;20.90;99.90;;;;;;5069057;28;19932;-58
2022/09/21 10:01:32;;;;;;;;;;;21.90;99.90;;;;;;5046493;28;19929;-58
2022/09/21 10:04:05;;;;;;;;;;;22.80;99.40;;;;;;5066512;28;20042;-59
2022/09/21 10:06:31;;;;;;;;;;;22.60;98.00;;;;;;5067737;28;20019;-58
2022/09/21 10:08:57;;;;;;;;;;;22.40;99.00;;;;;;5050026;28;19987;-62
2022/09/21 10:11:32;;;;;;;;;;;22.20;97.90;;;;;;5066315;28;19963;-62
2022/09/21 10:14:05;;;;;;;;;;;22.90;98.00;;;;;;5063676;28;19925;-64
2022/09/21 10:16:31;;;;;;;;;;;22.80;98.30;;;;;;5062792;28;19929;-63
2022/09/21 10:19:00;;;;;;;;;;;22.60;97.20;;;;;;5063895;28;19925;-58
2022/09/21 10:21:33;;;;;;;;;;;23.00;97.60;;;;;;5050464;28;19928;-63
2022/09/21 10:24:00;;;;;;;;;;;23.50;96.80;;;;;;5067355;28;19932;-58
2022/09/21 10:26:55;;;;;;;;;;;23.40;96.60;;;;;;5068058;28;19997;-58
2022/09/21 10:29:20;;;;;;;;;;;23.60;96.20;;;;;;5029505;28;19929;-58
2022/09/21 10:32:06;;;;;;;;;;;23.00;94.80;;;;;;5068539;28;19931;-58
2022/09/21 10:34:33;;;;;;;;;;;23.10;97.30;;;;;;5050669;28;19932;-58
2022/09/21 10:37:01;;;;;;;;;;;23.60;97.30;;;;;;5070020;28;20271;-58
2022/09/21 10:39:29;;;;;;;;;;;22.90;95.70;;;;;;5067416;28;19924;-58
2022/09/21 10:42:15;;;;;;;;;;;22.80;96.30;;;;;;5068834;28;19930;-58
2022/09/21 10:44:42;;;;;;;;;;;23.00;96.40;;;;;;5069135;28;19928;-58
2022/09/21 10:47:14;;;;;;;;;;;23.00;95.70;;;;;;5069096;28;19931;-57
2022/09/21 10:49:42;;;;;;;;;;;23.20;96.80;;;;;;5069407;28;19924;-58
2022/09/21 10:52:07;;;;;;;;;;;23.60;95.30;;;;;;5068554;28;20423;-58
2022/09/21 10:54:33;;;;;;;;;;;23.50;96.50;;;;;;5055392;28;19924;-58
2022/09/21 10:57:01;;;;;;;;;;;23.60;95.70;;;;;;5067353;28;19947;-58
2022/09/21 10:59:28;;;;;;;;;;;24.00;95.90;;;;;;5074422;28;20451;-58
2022/09/21 11:01:55;;;;;;;;;;;24.10;94.80;;;;;;5073234;28;19924;-59
2022/09/21 11:04:39;;;;;;;;;;;23.90;95.00;;;;;;5072723;28;19935;-59
2022/09/21 11:07:09;;;;;;;;;;;23.80;95.20;;;;;;5070144;28;19924;-59
2022/09/21 11:09:38;;;;;;;;;;;23.50;95.70;;;;;;5058329;28;19967;-59
2022/09/21 11:12:22;;;;;;;;;;;24.10;95.30;;;;;;5074454;28;19924;-59
2022/09/21 11:15:07;;;;;;;;;;;23.50;94.00;;;;;;5075163;28;20019;-59
2022/09/21 11:17:44;;;;;;;;;;;22.30;94.00;;;;;;5069256;28;19931;-60
2022/09/21 11:20:16;;;;;;;;;;;22.50;95.40;;;;;;5075409;28;19924;-60
2022/09/21 11:22:42;;;;;;;;;;;23.20;95.40;;;;;;5074052;28;20437;-59
2022/09/21 11:25:27;;;;;;;;;;;23.20;94.30;;;;;;5074703;28;20016;-59
2022/09/21 11:27:56;;;;;;;;;;;22.60;94.60;;;;;;5061622;28;19931;-59
2022/09/21 11:30:22;;;;;;;;;;;22.80;94.00;;;;;;5074723;28;19930;-60
2022/09/21 11:32:59;;;;;;;;;;;22.90;94.40;;;;;;5075191;28;19924;-59
2022/09/21 11:35:29;;;;;;;;;;;23.50;94.70;;;;;;5074852;28;19931;-59
2022/09/21 11:38:08;;;;;;;;;;;23.80;94.70;;;;;;5074784;28;20370;-58
2022/09/21 11:40:34;;;;;;;;;;;24.20;94.20;;;;;;5074943;28;19931;-59
2022/09/21 11:43:12;;;;;;;;;;;24.10;93.80;;;;;;5074618;28;19924;-59
2022/09/21 11:45:40;;;;;;;;;;;24.30;93.90;;;;;;5058990;28;20371;-59
2022/09/21 11:48:15;;;;;;;;;;;25.00;93.70;;;;;;5068146;28;20268;-59
2022/09/21 11:50:46;;;;;;;;;;;24.00;92.70;;;;;;5067734;28;20413;-59
2022/09/21 11:53:24;;;;;;;;;;;24.40;93.50;;;;;;5056771;28;20007;-58
2022/09/21 11:56:13;;;;;;;;;;;24.30;93.40;;;;;;5056728;28;19977;-58
2022/09/21 11:58:56;;;;;;;;;;;25.10;93.20;;;;;;5074461;28;19924;-58
2022/09/21 12:01:25;;;;;;;;;;;25.20;92.80;;;;;;5074548;28;19925;-58
2022/09/21 12:04:09;;;;;;;;;;;25.30;92.80;;;;;;5065243;28;19925;-58
2022/09/21 12:07:01;;;;;;;;;;;26.00;92.60;;;;;;5052763;28;19924;-58
2022/09/21 12:09:45;;;;;;;;;;;25.20;91.60;;;;;;5039870;28;19924;-58
2022/09/21 12:12:40;;;;;;;;;;;25.50;91.60;;;;;;5070875;28;19934;-58
2022/09/21 12:15:10;;;;;;;;;;;26.50;91.90;;;;;;5033526;28;19924;-58
2022/09/21 12:17:49;;;;;;;;;;;27.80;91.20;;;;;;5063564;28;19924;-58
2022/09/21 12:20:30;;;;;;;;;;;30.90;90.10;;;;;;5041477;28;20375;-59
2022/09/21 12:23:01;;;;;;;;;;;33.30;88.00;;;;;;5069006;28;19928;-59
2022/09/21 12:25:30;;;;;;;;;;;33.80;85.40;;;;;;5069913;28;19931;-59
2022/09/21 12:28:02;;;;;;;;;;;33.70;82.70;;;;;;5068969;28;19924;-58
2022/09/21 12:30:28;;;;;;;;;;;34.10;82.60;;;;;;5068564;28;19932;-59
2022/09/21 12:32:56;;;;;;;;;;;35.00;81.40;;;;;;5062090;28;19925;-58
2022/09/21 12:35:22;;;;;;;;;;;33.80;76.10;;;;;;5073087;28;19930;-59
2022/09/21 12:37:50;;;;;;;;;;;34.80;79.50;;;;;;5061091;28;19924;-59
2022/09/21 12:40:26;;;;;;;;;;;34.80;78.80;;;;;;5070754;28;20255;-58
2022/09/21 12:43:00;;;;;;;;;;;33.60;73.40;;;;;;5052705;28;20393;-59
2022/09/21 12:45:28;;;;;;;;;;;32.10;73.90;;;;;;5052862;28;19932;-58
2022/09/21 12:47:57;;;;;;;;;;;33.00;77.70;;;;;;5069918;28;19931;-59
2022/09/21 12:50:25;;;;;;;;;;;33.90;75.00;;;;;;5070704;28;20011;-58
2022/09/21 12:52:51;;;;;;;;;;;33.20;73.70;;;;;;5068791;28;19933;-58
2022/09/21 12:55:32;;;;;;;;;;;29.70;71.00;;;;;;5069662;28;19995;-58
2022/09/21 12:58:13;;;;;;;;;;;31.70;74.60;;;;;;5069543;28;19926;-59
2022/09/21 13:00:59;;;;;;;;;;;31.90;74.00;;;;;;5070037;28;20018;-58
2022/09/21 13:03:29;;;;;;;;;;;31.50;76.10;;;;;;5069849;28;19930;-58
2022/09/21 13:05:58;;;;;;;;;;;28.30;75.20;;;;;;5058319;28;20405;-58
2022/09/21 13:08:26;;;;;;;;;;;27.90;77.20;;;;;;5034924;28;19932;-58
2022/09/21 13:10:58;;;;;;;;;;;27.30;78.00;;;;;;5068497;28;20604;-58
2022/09/21 13:13:29;;;;;;;;;;;25.70;77.30;;;;;;5069396;28;19940;-58
2022/09/21 13:15:58;;;;;;;;;;;24.70;80.50;;;;;;5068035;28;19924;-58
2022/09/21 13:18:33;;;;;;;;;;;24.70;81.70;;;;;;5059257;28;19921;-58
2022/09/21 13:21:01;;;;;;;;;;;24.40;83.50;;;;;;5050253;28;20023;-58
2022/09/21 13:23:30;;;;;;;;;;;24.80;82.40;;;;;;5069673;28;19924;-58
2022/09/21 13:26:08;;;;;;;;;;;24.40;82.90;;;;;;5068163;28;20373;-59
2022/09/21 13:28:40;;;;;;;;;;;24.70;84.00;;;;;;5049410;28;20002;-59
2022/09/21 13:31:15;;;;;;;;;;;25.20;82.40;;;;;;5067477;28;20316;-58
2022/09/21 13:34:01;;;;;;;;;;;24.10;81.10;;;;;;5066011;28;19935;-58
2022/09/21 13:36:31;;;;;;;;;;;24.70;84.90;;;;;;5068232;28;19970;-58
2022/09/21 13:39:16;;;;;;;;;;;23.90;83.50;;;;;;5062697;28;20680;-61
2022/09/21 13:41:42;;;;;;;;;;;24.20;86.10;;;;;;5053011;28;20576;-62
2022/09/21 13:44:16;;;;;;;;;;;24.10;83.20;;;;;;5068578;28;19977;-58
2022/09/21 13:46:42;;;;;;;;;;;24.20;85.00;;;;;;5049357;28;19924;-57
2022/09/21 13:49:11;;;;;;;;;;;24.00;84.60;;;;;;5067240;28;19924;-58
2022/09/21 13:51:49;;;;;;;;;;;24.00;86.40;;;;;;5049283;28;19969;-58
2022/09/21 13:54:15;;;;;;;;;;;23.80;83.00;;;;;;5064428;28;19931;-57
2022/09/21 13:56:41;;;;;;;;;;;23.40;85.40;;;;;;5068327;28;20341;-58
2022/09/21 13:59:18;;;;;;;;;;;24.40;83.20;;;;;;5068509;28;19978;-59
2022/09/21 14:01:44;;;;;;;;;;;24.40;83.60;;;;;;5055687;28;20015;-59
2022/09/21 14:04:25;;;;;;;;;;;22.90;82.60;;;;;;5058704;28;20003;-58
2022/09/21 14:06:53;;;;;;;;;;;23.40;83.50;;;;;;5058047;28;19924;-58
2022/09/21 14:09:24;;;;;;;;;;;22.50;84.60;;;;;;5056481;28;19959;-59
2022/09/21 14:12:05;;;;;;;;;;;22.50;85.40;;;;;;5059256;28;19925;-59
2022/09/21 14:14:30;;;;;;;;;;;23.40;84.70;;;;;;5058344;28;19924;-59
2022/09/21 14:16:57;;;;;;;;;;;22.60;83.00;;;;;;5038458;28;19940;-59
2022/09/21 14:19:25;;;;;;;;;;;21.90;84.00;;;;;;5039626;28;20426;-59
2022/09/21 14:22:03;;;;;;;;;;;21.70;83.70;;;;;;5049029;28;19932;-59
2022/09/21 14:24:43;;;;;;;;;;;23.50;86.70;;;;;;5049317;28;20380;-59
2022/09/21 14:27:27;;;;;;;;;;;24.90;84.50;;;;;;5037914;28;20632;-59
2022/09/21 14:29:58;;;;;;;;;;;27.30;82.80;;;;;;5058116;28;19998;-59
2022/09/21 14:32:24;;;;;;;;;;;27.70;84.40;;;;;;5059604;28;20322;-58
2022/09/21 14:34:52;;;;;;;;;;;29.20;81.20;;;;;;5060147;28;19966;-58
2022/09/21 14:37:25;;;;;;;;;;;27.50;81.20;;;;;;5058777;28;19989;-59
2022/09/21 14:39:51;;;;;;;;;;;26.70;82.40;;;;;;5058162;28;20019;-58
2022/09/21 14:42:22;;;;;;;;;;;26.20;81.40;;;;;;5041875;28;19924;-58